Terminal Aerodrome Forecast
Issued by NWS Shreveport, LA

Home | Current Version | Previous Version | Text Only | Print | Product List | Glossary On
Versions: 1 2 3 4 5 6 7 8 9 10 11 12 13 14 15 16 17
000
FTUS44 KSHV 191750
TAFELD
TAF
KELD 191750Z 1918/2018 25007KT P6SM SKC
     FM192000 25007KT P6SM SCT025
     FM192300 23007KT P6SM VCTS BKN040CB
     FM200300 26010KT P6SM BKN050
     FM201100 30008KT P6SM SCT250=

USA.gov is the U.S. government's official web portal to all federal, state and local government web resources and services.